sensor_id;sensor_type;location;lat;lon;timestamp;P1;durP1;ratioP1;P2;durP2;ratioP2
58842;SDS011;44614;54.356;10.100;2023-05-07T00:01:49;14.82;;;7.15;;
58842;SDS011;44614;54.356;10.100;2023-05-07T00:04:14;14.15;;;5.95;;
58842;SDS011;44614;54.356;10.100;2023-05-07T00:06:39;17.47;;;7.47;;
58842;SDS011;44614;54.356;10.100;2023-05-07T00:09:05;18.52;;;6.22;;
58842;SDS011;44614;54.356;10.100;2023-05-07T00:11:31;12.00;;;5.82;;
58842;SDS011;44614;54.356;10.100;2023-05-07T00:13:57;14.13;;;6.88;;
58842;SDS011;44614;54.356;10.100;2023-05-07T00:16:22;14.07;;;5.47;;
58842;SDS011;44614;54.356;10.100;2023-05-07T00:18:47;11.87;;;7.47;;
58842;SDS011;44614;54.356;10.100;2023-05-07T00:21:13;14.10;;;5.95;;
58842;SDS011;44614;54.356;10.100;2023-05-07T00:23:38;17.90;;;8.13;;
58842;SDS011;44614;54.356;10.100;2023-05-07T00:26:04;16.90;;;6.60;;
58842;SDS011;44614;54.356;10.100;2023-05-07T00:28:29;15.15;;;7.22;;
58842;SDS011;44614;54.356;10.100;2023-05-07T00:30:54;15.07;;;7.32;;
58842;SDS011;44614;54.356;10.100;2023-05-07T00:33:20;16.00;;;6.70;;
58842;SDS011;44614;54.356;10.100;2023-05-07T00:35:46;17.75;;;6.03;;
58842;SDS011;44614;54.356;10.100;2023-05-07T00:38:11;17.20;;;6.82;;
58842;SDS011;44614;54.356;10.100;2023-05-07T00:40:37;22.13;;;6.97;;
58842;SDS011;44614;54.356;10.100;2023-05-07T00:43:02;13.77;;;6.68;;
58842;SDS011;44614;54.356;10.100;2023-05-07T00:45:27;15.45;;;6.72;;
58842;SDS011;44614;54.356;10.100;2023-05-07T00:47:54;10.18;;;5.88;;
58842;SDS011;44614;54.356;10.100;2023-05-07T00:50:24;13.63;;;6.30;;
58842;SDS011;44614;54.356;10.100;2023-05-07T00:52:51;14.00;;;6.18;;
58842;SDS011;44614;54.356;10.100;2023-05-07T00:55:16;13.82;;;6.07;;
58842;SDS011;44614;54.356;10.100;2023-05-07T00:57:42;12.68;;;6.30;;
58842;SDS011;44614;54.356;10.100;2023-05-07T01:00:09;13.60;;;7.28;;
58842;SDS011;44614;54.356;10.100;2023-05-07T01:02:35;14.95;;;7.00;;
58842;SDS011;44614;54.356;10.100;2023-05-07T01:05:01;14.35;;;6.45;;
58842;SDS011;44614;54.356;10.100;2023-05-07T01:07:28;12.23;;;7.28;;
58842;SDS011;44614;54.356;10.100;2023-05-07T01:09:54;15.27;;;7.43;;
58842;SDS011;44614;54.356;10.100;2023-05-07T01:12:20;15.80;;;6.38;;
58842;SDS011;44614;54.356;10.100;2023-05-07T01:14:45;14.13;;;7.43;;
58842;SDS011;44614;54.356;10.100;2023-05-07T01:17:11;17.48;;;6.72;;
58842;SDS011;44614;54.356;10.100;2023-05-07T01:19:36;15.85;;;6.80;;
58842;SDS011;44614;54.356;10.100;2023-05-07T01:22:03;12.25;;;5.85;;
58842;SDS011;44614;54.356;10.100;2023-05-07T01:24:32;15.02;;;7.85;;
58842;SDS011;44614;54.356;10.100;2023-05-07T01:26:58;16.35;;;6.60;;
58842;SDS011;44614;54.356;10.100;2023-05-07T01:29:23;17.23;;;7.20;;
58842;SDS011;44614;54.356;10.100;2023-05-07T01:31:48;15.07;;;7.87;;
58842;SDS011;44614;54.356;10.100;2023-05-07T01:34:17;14.73;;;7.03;;
58842;SDS011;44614;54.356;10.100;2023-05-07T01:36:43;17.08;;;7.03;;
58842;SDS011;44614;54.356;10.100;2023-05-07T01:39:10;16.90;;;7.57;;
58842;SDS011;44614;54.356;10.100;2023-05-07T01:41:35;12.93;;;6.28;;
58842;SDS011;44614;54.356;10.100;2023-05-07T01:44:01;13.88;;;5.65;;
58842;SDS011;44614;54.356;10.100;2023-05-07T01:46:28;14.52;;;6.97;;
58842;SDS011;44614;54.356;10.100;2023-05-07T01:48:56;15.68;;;7.18;;
58842;SDS011;44614;54.356;10.100;2023-05-07T01:51:21;11.57;;;7.15;;
58842;SDS011;44614;54.356;10.100;2023-05-07T01:53:47;15.73;;;7.28;;
58842;SDS011;44614;54.356;10.100;2023-05-07T01:56:16;19.90;;;8.85;;
58842;SDS011;44614;54.356;10.100;2023-05-07T02:01:07;14.87;;;6.63;;
58842;SDS011;44614;54.356;10.100;2023-05-07T02:03:33;15.93;;;7.03;;
58842;SDS011;44614;54.356;10.100;2023-05-07T02:05:58;13.97;;;6.20;;
58842;SDS011;44614;54.356;10.100;2023-05-07T02:08:23;24.63;;;7.53;;
58842;SDS011;44614;54.356;10.100;2023-05-07T02:10:49;14.97;;;7.93;;
58842;SDS011;44614;54.356;10.100;2023-05-07T02:13:16;15.98;;;7.07;;
58842;SDS011;44614;54.356;10.100;2023-05-07T02:15:41;13.27;;;7.85;;
58842;SDS011;44614;54.356;10.100;2023-05-07T02:18:07;12.90;;;6.93;;
58842;SDS011;44614;54.356;10.100;2023-05-07T02:20:34;15.13;;;7.30;;
58842;SDS011;44614;54.356;10.100;2023-05-07T02:22:59;10.70;;;6.20;;
58842;SDS011;44614;54.356;10.100;2023-05-07T02:25:25;13.75;;;6.65;;
58842;SDS011;44614;54.356;10.100;2023-05-07T02:27:51;15.70;;;5.72;;
58842;SDS011;44614;54.356;10.100;2023-05-07T02:30:16;12.02;;;5.75;;
58842;SDS011;44614;54.356;10.100;2023-05-07T02:32:42;16.52;;;7.03;;
58842;SDS011;44614;54.356;10.100;2023-05-07T02:35:07;14.05;;;5.97;;
58842;SDS011;44614;54.356;10.100;2023-05-07T02:37:33;10.50;;;5.53;;
58842;SDS011;44614;54.356;10.100;2023-05-07T02:39:58;10.93;;;5.88;;
58842;SDS011;44614;54.356;10.100;2023-05-07T02:42:23;10.63;;;5.17;;
58842;SDS011;44614;54.356;10.100;2023-05-07T02:44:48;12.98;;;5.85;;
58842;SDS011;44614;54.356;10.100;2023-05-07T02:47:14;13.02;;;6.50;;
58842;SDS011;44614;54.356;10.100;2023-05-07T02:49:40;15.50;;;6.37;;
58842;SDS011;44614;54.356;10.100;2023-05-07T02:52:06;11.70;;;6.93;;
58842;SDS011;44614;54.356;10.100;2023-05-07T02:54:32;11.25;;;5.72;;
58842;SDS011;44614;54.356;10.100;2023-05-07T02:56:57;9.00;;;5.18;;
58842;SDS011;44614;54.356;10.100;2023-05-07T02:59:23;13.93;;;7.43;;
58842;SDS011;44614;54.356;10.100;2023-05-07T03:01:49;11.32;;;6.15;;
58842;SDS011;44614;54.356;10.100;2023-05-07T03:04:14;13.30;;;6.88;;
58842;SDS011;44614;54.356;10.100;2023-05-07T03:06:40;10.57;;;5.95;;
58842;SDS011;44614;54.356;10.100;2023-05-07T03:09:05;13.17;;;6.00;;
58842;SDS011;44614;54.356;10.100;2023-05-07T03:11:31;11.55;;;5.95;;
58842;SDS011;44614;54.356;10.100;2023-05-07T03:13:56;12.23;;;5.30;;
58842;SDS011;44614;54.356;10.100;2023-05-07T03:16:21;15.07;;;6.83;;
58842;SDS011;44614;54.356;10.100;2023-05-07T03:18:47;13.30;;;6.25;;
58842;SDS011;44614;54.356;10.100;2023-05-07T03:21:12;12.93;;;6.17;;
58842;SDS011;44614;54.356;10.100;2023-05-07T03:23:37;9.73;;;5.53;;
58842;SDS011;44614;54.356;10.100;2023-05-07T03:26:03;12.65;;;6.15;;
58842;SDS011;44614;54.356;10.100;2023-05-07T03:28:28;10.77;;;7.07;;
58842;SDS011;44614;54.356;10.100;2023-05-07T03:30:53;13.33;;;6.03;;
58842;SDS011;44614;54.356;10.100;2023-05-07T03:33:19;15.55;;;6.82;;
58842;SDS011;44614;54.356;10.100;2023-05-07T03:35:44;12.27;;;6.03;;
58842;SDS011;44614;54.356;10.100;2023-05-07T03:38:09;11.00;;;6.38;;
58842;SDS011;44614;54.356;10.100;2023-05-07T03:40:35;11.80;;;5.82;;
58842;SDS011;44614;54.356;10.100;2023-05-07T03:43:00;12.75;;;6.55;;
58842;SDS011;44614;54.356;10.100;2023-05-07T03:45:25;13.25;;;6.07;;
58842;SDS011;44614;54.356;10.100;2023-05-07T03:47:51;16.03;;;5.93;;
58842;SDS011;44614;54.356;10.100;2023-05-07T03:50:16;10.70;;;5.28;;
58842;SDS011;44614;54.356;10.100;2023-05-07T03:52:42;16.73;;;6.07;;
58842;SDS011;44614;54.356;10.100;2023-05-07T03:55:07;14.88;;;6.28;;
58842;SDS011;44614;54.356;10.100;2023-05-07T03:57:33;10.20;;;6.47;;
58842;SDS011;44614;54.356;10.100;2023-05-07T03:59:58;12.52;;;5.80;;
58842;SDS011;44614;54.356;10.100;2023-05-07T04:02:23;15.27;;;6.67;;
58842;SDS011;44614;54.356;10.100;2023-05-07T04:04:49;11.50;;;5.97;;
58842;SDS011;44614;54.356;10.100;2023-05-07T04:07:15;12.27;;;6.45;;
58842;SDS011;44614;54.356;10.100;2023-05-07T04:09:40;11.52;;;5.75;;
58842;SDS011;44614;54.356;10.100;2023-05-07T04:12:06;10.98;;;5.78;;
58842;SDS011;44614;54.356;10.100;2023-05-07T04:14:31;10.82;;;5.72;;
58842;SDS011;44614;54.356;10.100;2023-05-07T04:16:57;14.88;;;5.78;;
58842;SDS011;44614;54.356;10.100;2023-05-07T04:21:49;10.00;;;5.68;;
58842;SDS011;44614;54.356;10.100;2023-05-07T04:24:15;13.93;;;5.43;;
58842;SDS011;44614;54.356;10.100;2023-05-07T04:26:40;13.70;;;5.90;;
58842;SDS011;44614;54.356;10.100;2023-05-07T04:29:06;9.93;;;5.57;;
58842;SDS011;44614;54.356;10.100;2023-05-07T04:31:31;12.40;;;5.30;;
58842;SDS011;44614;54.356;10.100;2023-05-07T04:33:57;9.32;;;5.68;;
58842;SDS011;44614;54.356;10.100;2023-05-07T04:36:22;9.00;;;5.07;;
58842;SDS011;44614;54.356;10.100;2023-05-07T04:38:47;11.68;;;5.32;;
58842;SDS011;44614;54.356;10.100;2023-05-07T04:41:13;12.87;;;5.57;;
58842;SDS011;44614;54.356;10.100;2023-05-07T04:43:38;11.98;;;6.07;;
58842;SDS011;44614;54.356;10.100;2023-05-07T04:46:05;19.73;;;5.87;;
58842;SDS011;44614;54.356;10.100;2023-05-07T04:48:30;12.55;;;6.47;;
58842;SDS011;44614;54.356;10.100;2023-05-07T04:50:55;13.73;;;5.65;;
58842;SDS011;44614;54.356;10.100;2023-05-07T04:53:21;11.18;;;5.53;;
58842;SDS011;44614;54.356;10.100;2023-05-07T04:58:12;13.30;;;5.93;;
58842;SDS011;44614;54.356;10.100;2023-05-07T05:00:38;12.02;;;4.95;;
58842;SDS011;44614;54.356;10.100;2023-05-07T05:03:04;13.15;;;5.57;;
58842;SDS011;44614;54.356;10.100;2023-05-07T05:05:31;10.30;;;5.35;;
58842;SDS011;44614;54.356;10.100;2023-05-07T05:07:56;11.07;;;6.27;;
58842;SDS011;44614;54.356;10.100;2023-05-07T05:10:21;9.82;;;6.50;;
58842;SDS011;44614;54.356;10.100;2023-05-07T05:12:47;12.00;;;5.57;;
58842;SDS011;44614;54.356;10.100;2023-05-07T05:15:15;9.52;;;4.65;;
58842;SDS011;44614;54.356;10.100;2023-05-07T05:17:40;10.77;;;4.63;;
58842;SDS011;44614;54.356;10.100;2023-05-07T05:20:06;9.05;;;4.13;;
58842;SDS011;44614;54.356;10.100;2023-05-07T05:22:32;8.32;;;4.93;;
58842;SDS011;44614;54.356;10.100;2023-05-07T05:24:57;10.10;;;4.88;;
58842;SDS011;44614;54.356;10.100;2023-05-07T05:27:23;14.45;;;6.03;;
58842;SDS011;44614;54.356;10.100;2023-05-07T05:29:48;9.73;;;5.32;;
58842;SDS011;44614;54.356;10.100;2023-05-07T05:32:13;9.65;;;4.38;;
58842;SDS011;44614;54.356;10.100;2023-05-07T05:34:39;11.85;;;5.63;;
58842;SDS011;44614;54.356;10.100;2023-05-07T05:37:04;13.57;;;6.95;;
58842;SDS011;44614;54.356;10.100;2023-05-07T05:39:29;10.55;;;5.57;;
58842;SDS011;44614;54.356;10.100;2023-05-07T05:41:54;14.07;;;4.90;;
58842;SDS011;44614;54.356;10.100;2023-05-07T05:44:20;11.43;;;5.87;;
58842;SDS011;44614;54.356;10.100;2023-05-07T05:46:45;11.55;;;5.60;;
58842;SDS011;44614;54.356;10.100;2023-05-07T05:49:11;23.73;;;10.02;;
58842;SDS011;44614;54.356;10.100;2023-05-07T05:51:36;11.15;;;5.55;;
58842;SDS011;44614;54.356;10.100;2023-05-07T05:54:01;9.93;;;5.60;;
58842;SDS011;44614;54.356;10.100;2023-05-07T05:56:27;11.60;;;5.55;;
58842;SDS011;44614;54.356;10.100;2023-05-07T05:58:52;9.10;;;5.57;;
58842;SDS011;44614;54.356;10.100;2023-05-07T06:01:18;9.25;;;4.78;;
58842;SDS011;44614;54.356;10.100;2023-05-07T06:03:43;12.25;;;5.32;;
58842;SDS011;44614;54.356;10.100;2023-05-07T06:06:09;9.82;;;4.97;;
58842;SDS011;44614;54.356;10.100;2023-05-07T06:08:34;8.83;;;4.53;;
58842;SDS011;44614;54.356;10.100;2023-05-07T06:11:01;16.70;;;6.20;;
58842;SDS011;44614;54.356;10.100;2023-05-07T06:13:27;11.25;;;5.22;;
58842;SDS011;44614;54.356;10.100;2023-05-07T06:15:53;10.63;;;5.60;;
58842;SDS011;44614;54.356;10.100;2023-05-07T06:18:18;9.73;;;5.38;;
58842;SDS011;44614;54.356;10.100;2023-05-07T06:20:43;14.45;;;5.82;;
58842;SDS011;44614;54.356;10.100;2023-05-07T06:23:09;10.10;;;5.18;;
58842;SDS011;44614;54.356;10.100;2023-05-07T06:25:34;10.68;;;5.80;;
58842;SDS011;44614;54.356;10.100;2023-05-07T06:27:59;10.20;;;5.05;;
58842;SDS011;44614;54.356;10.100;2023-05-07T06:30:25;8.97;;;4.83;;
58842;SDS011;44614;54.356;10.100;2023-05-07T06:32:51;13.25;;;5.82;;
58842;SDS011;44614;54.356;10.100;2023-05-07T06:35:17;11.38;;;5.70;;
58842;SDS011;44614;54.356;10.100;2023-05-07T06:37:42;10.15;;;5.63;;
58842;SDS011;44614;54.356;10.100;2023-05-07T06:40:08;10.67;;;4.83;;
58842;SDS011;44614;54.356;10.100;2023-05-07T06:42:35;9.80;;;5.38;;
58842;SDS011;44614;54.356;10.100;2023-05-07T06:45:00;9.20;;;5.18;;
58842;SDS011;44614;54.356;10.100;2023-05-07T06:47:26;8.93;;;4.40;;
58842;SDS011;44614;54.356;10.100;2023-05-07T06:49:51;10.00;;;5.00;;
58842;SDS011;44614;54.356;10.100;2023-05-07T06:52:17;9.10;;;4.50;;
58842;SDS011;44614;54.356;10.100;2023-05-07T06:54:42;8.60;;;4.57;;
58842;SDS011;44614;54.356;10.100;2023-05-07T06:57:07;10.20;;;4.82;;
58842;SDS011;44614;54.356;10.100;2023-05-07T06:59:33;9.25;;;5.05;;
58842;SDS011;44614;54.356;10.100;2023-05-07T07:01:58;12.80;;;5.15;;
58842;SDS011;44614;54.356;10.100;2023-05-07T07:04:23;11.17;;;5.50;;
58842;SDS011;44614;54.356;10.100;2023-05-07T07:06:51;9.85;;;4.68;;
58842;SDS011;44614;54.356;10.100;2023-05-07T07:11:42;9.80;;;4.07;;
58842;SDS011;44614;54.356;10.100;2023-05-07T07:14:07;8.70;;;4.30;;
58842;SDS011;44614;54.356;10.100;2023-05-07T07:16:33;9.82;;;4.55;;
58842;SDS011;44614;54.356;10.100;2023-05-07T07:18:58;11.40;;;4.78;;
58842;SDS011;44614;54.356;10.100;2023-05-07T07:21:23;7.82;;;4.35;;
58842;SDS011;44614;54.356;10.100;2023-05-07T07:23:48;7.35;;;4.22;;
58842;SDS011;44614;54.356;10.100;2023-05-07T07:26:14;8.33;;;4.00;;
58842;SDS011;44614;54.356;10.100;2023-05-07T07:28:45;7.15;;;3.60;;
58842;SDS011;44614;54.356;10.100;2023-05-07T07:31:11;7.15;;;4.20;;
58842;SDS011;44614;54.356;10.100;2023-05-07T07:33:36;9.48;;;5.43;;
58842;SDS011;44614;54.356;10.100;2023-05-07T07:36:02;6.80;;;2.83;;
58842;SDS011;44614;54.356;10.100;2023-05-07T07:38:27;8.57;;;5.28;;
58842;SDS011;44614;54.356;10.100;2023-05-07T07:40:53;4.80;;;2.95;;
58842;SDS011;44614;54.356;10.100;2023-05-07T07:43:18;7.43;;;3.60;;
58842;SDS011;44614;54.356;10.100;2023-05-07T07:45:43;7.00;;;3.05;;
58842;SDS011;44614;54.356;10.100;2023-05-07T07:48:09;8.93;;;3.13;;
58842;SDS011;44614;54.356;10.100;2023-05-07T07:50:35;5.93;;;2.87;;
58842;SDS011;44614;54.356;10.100;2023-05-07T07:53:00;5.88;;;3.35;;
58842;SDS011;44614;54.356;10.100;2023-05-07T07:55:26;5.95;;;3.58;;
58842;SDS011;44614;54.356;10.100;2023-05-07T07:57:52;6.07;;;3.23;;
58842;SDS011;44614;54.356;10.100;2023-05-07T08:00:17;7.10;;;2.58;;
58842;SDS011;44614;54.356;10.100;2023-05-07T08:02:43;6.65;;;3.17;;
58842;SDS011;44614;54.356;10.100;2023-05-07T08:05:08;6.70;;;3.07;;
58842;SDS011;44614;54.356;10.100;2023-05-07T08:07:33;7.03;;;3.28;;
58842;SDS011;44614;54.356;10.100;2023-05-07T08:09:59;8.37;;;3.60;;
58842;SDS011;44614;54.356;10.100;2023-05-07T08:12:24;10.10;;;3.47;;
58842;SDS011;44614;54.356;10.100;2023-05-07T08:14:50;6.33;;;3.70;;
58842;SDS011;44614;54.356;10.100;2023-05-07T08:17:15;7.70;;;3.90;;
58842;SDS011;44614;54.356;10.100;2023-05-07T08:19:41;7.05;;;3.90;;
58842;SDS011;44614;54.356;10.100;2023-05-07T08:22:07;6.57;;;3.67;;
58842;SDS011;44614;54.356;10.100;2023-05-07T08:24:33;7.13;;;3.35;;
58842;SDS011;44614;54.356;10.100;2023-05-07T08:26:58;6.33;;;3.40;;
58842;SDS011;44614;54.356;10.100;2023-05-07T08:29:23;9.13;;;3.70;;
58842;SDS011;44614;54.356;10.100;2023-05-07T08:31:49;7.73;;;3.80;;
58842;SDS011;44614;54.356;10.100;2023-05-07T08:34:14;6.40;;;3.87;;
58842;SDS011;44614;54.356;10.100;2023-05-07T08:36:39;6.47;;;3.23;;
58842;SDS011;44614;54.356;10.100;2023-05-07T08:41:32;6.97;;;3.45;;
58842;SDS011;44614;54.356;10.100;2023-05-07T08:43:58;4.80;;;3.07;;
58842;SDS011;44614;54.356;10.100;2023-05-07T08:46:25;8.38;;;3.67;;
58842;SDS011;44614;54.356;10.100;2023-05-07T08:48:53;10.73;;;3.92;;
58842;SDS011;44614;54.356;10.100;2023-05-07T08:51:19;7.00;;;3.77;;
58842;SDS011;44614;54.356;10.100;2023-05-07T08:53:46;5.45;;;2.50;;
58842;SDS011;44614;54.356;10.100;2023-05-07T08:56:13;6.45;;;3.38;;
58842;SDS011;44614;54.356;10.100;2023-05-07T08:58:40;6.47;;;2.70;;
58842;SDS011;44614;54.356;10.100;2023-05-07T09:01:09;9.37;;;3.67;;
58842;SDS011;44614;54.356;10.100;2023-05-07T09:03:39;10.23;;;3.42;;
58842;SDS011;44614;54.356;10.100;2023-05-07T09:06:05;5.40;;;3.03;;
58842;SDS011;44614;54.356;10.100;2023-05-07T09:08:32;7.47;;;3.83;;
58842;SDS011;44614;54.356;10.100;2023-05-07T09:10:58;6.97;;;3.00;;
58842;SDS011;44614;54.356;10.100;2023-05-07T09:13:24;7.20;;;2.87;;
58842;SDS011;44614;54.356;10.100;2023-05-07T09:15:50;6.18;;;3.58;;
58842;SDS011;44614;54.356;10.100;2023-05-07T09:18:16;6.10;;;2.50;;
58842;SDS011;44614;54.356;10.100;2023-05-07T09:20:41;7.13;;;4.00;;
58842;SDS011;44614;54.356;10.100;2023-05-07T09:23:07;7.20;;;2.83;;
58842;SDS011;44614;54.356;10.100;2023-05-07T09:25:33;4.88;;;2.65;;
58842;SDS011;44614;54.356;10.100;2023-05-07T09:30:28;5.30;;;2.85;;
58842;SDS011;44614;54.356;10.100;2023-05-07T09:32:56;4.55;;;2.85;;
58842;SDS011;44614;54.356;10.100;2023-05-07T09:35:22;5.95;;;3.15;;
58842;SDS011;44614;54.356;10.100;2023-05-07T09:37:52;4.40;;;2.92;;
58842;SDS011;44614;54.356;10.100;2023-05-07T09:40:22;5.25;;;3.08;;
58842;SDS011;44614;54.356;10.100;2023-05-07T09:42:52;5.50;;;2.70;;
58842;SDS011;44614;54.356;10.100;2023-05-07T09:45:24;6.68;;;3.45;;
58842;SDS011;44614;54.356;10.100;2023-05-07T09:47:53;4.72;;;2.80;;
58842;SDS011;44614;54.356;10.100;2023-05-07T09:50:19;6.28;;;3.47;;
58842;SDS011;44614;54.356;10.100;2023-05-07T09:52:50;5.28;;;2.85;;
58842;SDS011;44614;54.356;10.100;2023-05-07T09:55:17;6.90;;;2.55;;
58842;SDS011;44614;54.356;10.100;2023-05-07T09:57:43;4.93;;;2.40;;
58842;SDS011;44614;54.356;10.100;2023-05-07T10:00:11;4.18;;;2.50;;
58842;SDS011;44614;54.356;10.100;2023-05-07T10:02:37;5.47;;;3.08;;
58842;SDS011;44614;54.356;10.100;2023-05-07T10:05:11;7.90;;;3.13;;
58842;SDS011;44614;54.356;10.100;2023-05-07T10:07:39;5.55;;;2.63;;
58842;SDS011;44614;54.356;10.100;2023-05-07T10:10:05;6.45;;;2.88;;
58842;SDS011;44614;54.356;10.100;2023-05-07T10:12:31;6.18;;;3.08;;
58842;SDS011;44614;54.356;10.100;2023-05-07T10:15:04;4.18;;;2.72;;
58842;SDS011;44614;54.356;10.100;2023-05-07T10:17:31;5.45;;;3.03;;
58842;SDS011;44614;54.356;10.100;2023-05-07T10:19:56;7.03;;;3.20;;
58842;SDS011;44614;54.356;10.100;2023-05-07T10:22:22;6.00;;;2.80;;
58842;SDS011;44614;54.356;10.100;2023-05-07T10:24:49;4.68;;;2.97;;
58842;SDS011;44614;54.356;10.100;2023-05-07T10:27:19;5.97;;;3.22;;
58842;SDS011;44614;54.356;10.100;2023-05-07T10:29:57;7.18;;;2.90;;
58842;SDS011;44614;54.356;10.100;2023-05-07T10:35:00;4.90;;;3.25;;
58842;SDS011;44614;54.356;10.100;2023-05-07T10:37:29;6.45;;;2.90;;
58842;SDS011;44614;54.356;10.100;2023-05-07T10:39:55;4.10;;;2.37;;
58842;SDS011;44614;54.356;10.100;2023-05-07T10:42:22;5.45;;;2.50;;
58842;SDS011;44614;54.356;10.100;2023-05-07T10:44:47;3.73;;;2.57;;
58842;SDS011;44614;54.356;10.100;2023-05-07T10:47:14;4.17;;;2.57;;
58842;SDS011;44614;54.356;10.100;2023-05-07T10:54:40;5.40;;;2.30;;
58842;SDS011;44614;54.356;10.100;2023-05-07T10:59:57;4.50;;;2.80;;
58842;SDS011;44614;54.356;10.100;2023-05-07T11:02:22;4.10;;;2.30;;
58842;SDS011;44614;54.356;10.100;2023-05-07T11:07:53;4.43;;;2.67;;
58842;SDS011;44614;54.356;10.100;2023-05-07T11:13:12;4.38;;;2.22;;
58842;SDS011;44614;54.356;10.100;2023-05-07T11:18:07;6.20;;;2.47;;
58842;SDS011;44614;54.356;10.100;2023-05-07T11:28:27;5.00;;;2.17;;
58842;SDS011;44614;54.356;10.100;2023-05-07T11:30:53;4.40;;;1.63;;
58842;SDS011;44614;54.356;10.100;2023-05-07T11:33:19;3.63;;;2.10;;
58842;SDS011;44614;54.356;10.100;2023-05-07T11:35:44;4.13;;;2.17;;
58842;SDS011;44614;54.356;10.100;2023-05-07T11:38:10;2.72;;;2.00;;
58842;SDS011;44614;54.356;10.100;2023-05-07T11:40:58;3.42;;;2.35;;
58842;SDS011;44614;54.356;10.100;2023-05-07T11:43:27;3.95;;;1.35;;
58842;SDS011;44614;54.356;10.100;2023-05-07T11:45:53;2.17;;;1.80;;
58842;SDS011;44614;54.356;10.100;2023-05-07T11:48:18;1.43;;;1.33;;
58842;SDS011;44614;54.356;10.100;2023-05-07T11:53:26;1.65;;;1.23;;
58842;SDS011;44614;54.356;10.100;2023-05-07T11:55:53;3.92;;;2.05;;
58842;SDS011;44614;54.356;10.100;2023-05-07T11:58:21;3.63;;;1.85;;
58842;SDS011;44614;54.356;10.100;2023-05-07T12:00:50;2.70;;;1.63;;
58842;SDS011;44614;54.356;10.100;2023-05-07T12:03:16;1.45;;;1.15;;
58842;SDS011;44614;54.356;10.100;2023-05-07T12:05:43;2.95;;;1.55;;
58842;SDS011;44614;54.356;10.100;2023-05-07T12:08:12;4.70;;;2.05;;
58842;SDS011;44614;54.356;10.100;2023-05-07T12:10:43;2.88;;;1.40;;
58842;SDS011;44614;54.356;10.100;2023-05-07T12:13:15;1.88;;;1.40;;
58842;SDS011;44614;54.356;10.100;2023-05-07T12:15:41;3.00;;;1.40;;
58842;SDS011;44614;54.356;10.100;2023-05-07T12:18:07;1.60;;;1.30;;
58842;SDS011;44614;54.356;10.100;2023-05-07T12:20:34;2.57;;;1.37;;
58842;SDS011;44614;54.356;10.100;2023-05-07T12:23:00;2.58;;;1.58;;
58842;SDS011;44614;54.356;10.100;2023-05-07T12:25:26;2.17;;;1.55;;
58842;SDS011;44614;54.356;10.100;2023-05-07T12:27:54;1.95;;;1.20;;
58842;SDS011;44614;54.356;10.100;2023-05-07T12:30:20;1.87;;;1.17;;
58842;SDS011;44614;54.356;10.100;2023-05-07T12:32:45;3.33;;;1.40;;
58842;SDS011;44614;54.356;10.100;2023-05-07T12:35:10;2.43;;;1.63;;
58842;SDS011;44614;54.356;10.100;2023-05-07T12:37:36;4.40;;;1.50;;
58842;SDS011;44614;54.356;10.100;2023-05-07T12:40:08;2.07;;;1.33;;
58842;SDS011;44614;54.356;10.100;2023-05-07T12:42:35;2.30;;;1.45;;
58842;SDS011;44614;54.356;10.100;2023-05-07T12:45:12;2.38;;;1.38;;
58842;SDS011;44614;54.356;10.100;2023-05-07T12:47:43;2.90;;;1.33;;
58842;SDS011;44614;54.356;10.100;2023-05-07T12:50:10;2.90;;;1.38;;
58842;SDS011;44614;54.356;10.100;2023-05-07T12:52:36;2.42;;;1.55;;
58842;SDS011;44614;54.356;10.100;2023-05-07T12:55:05;2.75;;;1.23;;
58842;SDS011;44614;54.356;10.100;2023-05-07T12:57:37;3.05;;;2.22;;
58842;SDS011;44614;54.356;10.100;2023-05-07T13:00:04;3.83;;;1.48;;
58842;SDS011;44614;54.356;10.100;2023-05-07T13:02:33;4.72;;;1.13;;
58842;SDS011;44614;54.356;10.100;2023-05-07T13:04:59;2.22;;;1.35;;
58842;SDS011;44614;54.356;10.100;2023-05-07T13:07:25;6.10;;;2.60;;
58842;SDS011;44614;54.356;10.100;2023-05-07T13:09:50;3.50;;;1.77;;
58842;SDS011;44614;54.356;10.100;2023-05-07T13:12:15;4.03;;;1.40;;
58842;SDS011;44614;54.356;10.100;2023-05-07T13:14:41;3.03;;;1.77;;
58842;SDS011;44614;54.356;10.100;2023-05-07T13:17:06;1.83;;;1.40;;
58842;SDS011;44614;54.356;10.100;2023-05-07T13:19:32;1.63;;;1.53;;
58842;SDS011;44614;54.356;10.100;2023-05-07T13:21:57;2.57;;;1.33;;
58842;SDS011;44614;54.356;10.100;2023-05-07T13:24:22;2.60;;;1.00;;
58842;SDS011;44614;54.356;10.100;2023-05-07T13:26:48;3.57;;;1.40;;
58842;SDS011;44614;54.356;10.100;2023-05-07T13:29:13;2.83;;;1.67;;
58842;SDS011;44614;54.356;10.100;2023-05-07T13:31:38;2.30;;;1.10;;
58842;SDS011;44614;54.356;10.100;2023-05-07T13:34:07;3.58;;;1.27;;
58842;SDS011;44614;54.356;10.100;2023-05-07T13:36:33;3.87;;;1.37;;
58842;SDS011;44614;54.356;10.100;2023-05-07T13:39:02;3.42;;;1.27;;
58842;SDS011;44614;54.356;10.100;2023-05-07T13:41:27;3.15;;;1.75;;
58842;SDS011;44614;54.356;10.100;2023-05-07T13:43:53;3.53;;;1.37;;
58842;SDS011;44614;54.356;10.100;2023-05-07T13:46:18;2.07;;;1.20;;
58842;SDS011;44614;54.356;10.100;2023-05-07T13:48:43;2.00;;;1.23;;
58842;SDS011;44614;54.356;10.100;2023-05-07T13:51:09;5.17;;;1.47;;
58842;SDS011;44614;54.356;10.100;2023-05-07T13:53:34;2.60;;;1.37;;
58842;SDS011;44614;54.356;10.100;2023-05-07T13:56:00;1.60;;;1.50;;
58842;SDS011;44614;54.356;10.100;2023-05-07T13:58:29;4.57;;;1.80;;
58842;SDS011;44614;54.356;10.100;2023-05-07T14:00:55;3.60;;;1.23;;
58842;SDS011;44614;54.356;10.100;2023-05-07T14:03:20;3.40;;;1.40;;
58842;SDS011;44614;54.356;10.100;2023-05-07T14:05:45;2.87;;;1.47;;
58842;SDS011;44614;54.356;10.100;2023-05-07T14:08:11;2.13;;;1.00;;
58842;SDS011;44614;54.356;10.100;2023-05-07T14:10:38;2.50;;;1.10;;
58842;SDS011;44614;54.356;10.100;2023-05-07T14:13:04;2.83;;;1.00;;
58842;SDS011;44614;54.356;10.100;2023-05-07T14:15:29;3.10;;;1.63;;
58842;SDS011;44614;54.356;10.100;2023-05-07T14:17:55;2.33;;;1.20;;
58842;SDS011;44614;54.356;10.100;2023-05-07T14:20:22;2.03;;;1.25;;
58842;SDS011;44614;54.356;10.100;2023-05-07T14:22:47;2.60;;;1.20;;
58842;SDS011;44614;54.356;10.100;2023-05-07T14:25:13;1.70;;;1.10;;
58842;SDS011;44614;54.356;10.100;2023-05-07T14:27:38;2.17;;;1.20;;
58842;SDS011;44614;54.356;10.100;2023-05-07T14:30:03;2.87;;;1.23;;
58842;SDS011;44614;54.356;10.100;2023-05-07T14:32:29;1.30;;;0.90;;
58842;SDS011;44614;54.356;10.100;2023-05-07T14:34:55;2.70;;;1.23;;
58842;SDS011;44614;54.356;10.100;2023-05-07T14:37:20;2.53;;;1.33;;
58842;SDS011;44614;54.356;10.100;2023-05-07T14:39:45;1.93;;;1.47;;
58842;SDS011;44614;54.356;10.100;2023-05-07T14:42:11;2.47;;;1.20;;
58842;SDS011;44614;54.356;10.100;2023-05-07T14:44:37;3.72;;;1.60;;
58842;SDS011;44614;54.356;10.100;2023-05-07T14:47:05;2.55;;;1.15;;
58842;SDS011;44614;54.356;10.100;2023-05-07T14:49:30;2.17;;;1.43;;
58842;SDS011;44614;54.356;10.100;2023-05-07T14:51:57;2.30;;;1.20;;
58842;SDS011;44614;54.356;10.100;2023-05-07T14:54:23;1.95;;;1.00;;
58842;SDS011;44614;54.356;10.100;2023-05-07T14:56:49;2.70;;;1.30;;
58842;SDS011;44614;54.356;10.100;2023-05-07T14:59:15;3.65;;;1.27;;
58842;SDS011;44614;54.356;10.100;2023-05-07T15:01:43;1.42;;;1.17;;
58842;SDS011;44614;54.356;10.100;2023-05-07T15:04:10;1.73;;;1.10;;
58842;SDS011;44614;54.356;10.100;2023-05-07T15:06:35;5.67;;;1.40;;